sensor_id;sensor_type;location;lat;lon;timestamp;P1;durP1;ratioP1;P2;durP2;ratioP2
76714;SDS011;65644;44.990;20.288;2023-03-14T00:00:07;12.90;;;9.60;;
76714;SDS011;65644;44.990;20.288;2023-03-14T00:02:34;15.25;;;9.77;;
76714;SDS011;65644;44.990;20.288;2023-03-14T00:05:00;15.68;;;10.43;;
76714;SDS011;65644;44.990;20.288;2023-03-14T00:07:31;14.00;;;9.05;;
76714;SDS011;65644;44.990;20.288;2023-03-14T00:09:59;13.32;;;8.90;;
76714;SDS011;65644;44.990;20.288;2023-03-14T00:12:26;14.73;;;9.00;;
76714;SDS011;65644;44.990;20.288;2023-03-14T00:14:52;10.73;;;8.38;;
76714;SDS011;65644;44.990;20.288;2023-03-14T00:17:18;13.50;;;8.25;;
76714;SDS011;65644;44.990;20.288;2023-03-14T00:19:44;12.52;;;8.68;;
76714;SDS011;65644;44.990;20.288;2023-03-14T00:22:10;12.63;;;8.35;;
76714;SDS011;65644;44.990;20.288;2023-03-14T00:24:36;12.00;;;8.50;;
76714;SDS011;65644;44.990;20.288;2023-03-14T00:27:02;12.50;;;8.40;;
76714;SDS011;65644;44.990;20.288;2023-03-14T00:29:28;11.13;;;8.23;;
76714;SDS011;65644;44.990;20.288;2023-03-14T00:31:55;11.52;;;7.90;;
76714;SDS011;65644;44.990;20.288;2023-03-14T00:34:21;10.35;;;7.25;;
76714;SDS011;65644;44.990;20.288;2023-03-14T00:36:47;9.82;;;7.20;;
76714;SDS011;65644;44.990;20.288;2023-03-14T00:39:13;12.27;;;8.98;;
76714;SDS011;65644;44.990;20.288;2023-03-14T00:41:39;12.00;;;8.02;;
76714;SDS011;65644;44.990;20.288;2023-03-14T00:44:05;13.10;;;8.15;;
76714;SDS011;65644;44.990;20.288;2023-03-14T00:46:31;9.73;;;7.38;;
76714;SDS011;65644;44.990;20.288;2023-03-14T00:48:57;11.07;;;7.20;;
76714;SDS011;65644;44.990;20.288;2023-03-14T00:51:23;12.30;;;7.80;;
76714;SDS011;65644;44.990;20.288;2023-03-14T00:53:49;10.38;;;7.28;;
76714;SDS011;65644;44.990;20.288;2023-03-14T00:56:15;11.98;;;8.05;;
76714;SDS011;65644;44.990;20.288;2023-03-14T00:58:41;12.30;;;7.57;;
76714;SDS011;65644;44.990;20.288;2023-03-14T01:01:08;11.10;;;7.90;;
76714;SDS011;65644;44.990;20.288;2023-03-14T01:03:34;13.82;;;7.75;;
76714;SDS011;65644;44.990;20.288;2023-03-14T01:06:07;10.48;;;7.18;;
76714;SDS011;65644;44.990;20.288;2023-03-14T01:08:33;9.23;;;7.13;;
76714;SDS011;65644;44.990;20.288;2023-03-14T01:10:59;11.50;;;8.02;;
76714;SDS011;65644;44.990;20.288;2023-03-14T01:13:25;11.02;;;7.85;;
76714;SDS011;65644;44.990;20.288;2023-03-14T01:15:51;8.98;;;7.15;;
76714;SDS011;65644;44.990;20.288;2023-03-14T01:18:17;12.68;;;7.82;;
76714;SDS011;65644;44.990;20.288;2023-03-14T01:20:43;11.05;;;7.57;;
76714;SDS011;65644;44.990;20.288;2023-03-14T01:23:09;11.23;;;7.22;;
76714;SDS011;65644;44.990;20.288;2023-03-14T01:25:40;11.32;;;7.65;;
76714;SDS011;65644;44.990;20.288;2023-03-14T01:28:06;10.32;;;7.97;;
76714;SDS011;65644;44.990;20.288;2023-03-14T01:30:32;11.80;;;7.85;;
76714;SDS011;65644;44.990;20.288;2023-03-14T01:32:58;14.65;;;8.55;;
76714;SDS011;65644;44.990;20.288;2023-03-14T01:35:24;12.18;;;7.75;;
76714;SDS011;65644;44.990;20.288;2023-03-14T01:37:50;10.30;;;8.13;;
76714;SDS011;65644;44.990;20.288;2023-03-14T01:40:16;12.68;;;7.57;;
76714;SDS011;65644;44.990;20.288;2023-03-14T01:42:46;12.32;;;7.53;;
76714;SDS011;65644;44.990;20.288;2023-03-14T01:47:57;11.20;;;7.22;;
76714;SDS011;65644;44.990;20.288;2023-03-14T01:50:23;10.90;;;8.15;;
76714;SDS011;65644;44.990;20.288;2023-03-14T01:52:49;12.07;;;7.78;;
76714;SDS011;65644;44.990;20.288;2023-03-14T01:55:19;9.48;;;7.03;;
76714;SDS011;65644;44.990;20.288;2023-03-14T01:57:50;10.05;;;7.80;;
76714;SDS011;65644;44.990;20.288;2023-03-14T02:00:18;10.82;;;7.55;;
76714;SDS011;65644;44.990;20.288;2023-03-14T02:02:49;10.57;;;7.65;;
76714;SDS011;65644;44.990;20.288;2023-03-14T02:05:17;9.23;;;7.13;;
76714;SDS011;65644;44.990;20.288;2023-03-14T02:07:54;10.85;;;7.15;;
76714;SDS011;65644;44.990;20.288;2023-03-14T02:10:21;10.68;;;7.15;;
76714;SDS011;65644;44.990;20.288;2023-03-14T02:12:48;9.82;;;7.03;;
76714;SDS011;65644;44.990;20.288;2023-03-14T02:15:14;9.13;;;7.50;;
76714;SDS011;65644;44.990;20.288;2023-03-14T02:17:41;9.93;;;7.50;;
76714;SDS011;65644;44.990;20.288;2023-03-14T02:22:37;10.38;;;6.60;;
76714;SDS011;65644;44.990;20.288;2023-03-14T02:25:12;9.75;;;6.47;;
76714;SDS011;65644;44.990;20.288;2023-03-14T02:27:40;10.38;;;7.47;;
76714;SDS011;65644;44.990;20.288;2023-03-14T02:30:25;11.70;;;7.15;;
76714;SDS011;65644;44.990;20.288;2023-03-14T02:32:52;9.95;;;6.47;;
76714;SDS011;65644;44.990;20.288;2023-03-14T02:35:24;10.75;;;7.07;;
76714;SDS011;65644;44.990;20.288;2023-03-14T02:38:03;8.20;;;6.65;;
76714;SDS011;65644;44.990;20.288;2023-03-14T02:40:32;10.60;;;6.28;;
76714;SDS011;65644;44.990;20.288;2023-03-14T02:42:58;9.98;;;6.78;;
76714;SDS011;65644;44.990;20.288;2023-03-14T02:47:56;12.82;;;7.15;;
76714;SDS011;65644;44.990;20.288;2023-03-14T02:50:24;9.68;;;6.57;;
76714;SDS011;65644;44.990;20.288;2023-03-14T02:52:52;8.32;;;6.43;;
76714;SDS011;65644;44.990;20.288;2023-03-14T02:55:21;9.90;;;6.85;;
76714;SDS011;65644;44.990;20.288;2023-03-14T02:57:47;10.35;;;7.10;;
76714;SDS011;65644;44.990;20.288;2023-03-14T03:00:14;9.00;;;6.95;;
76714;SDS011;65644;44.990;20.288;2023-03-14T03:02:40;9.20;;;6.82;;
76714;SDS011;65644;44.990;20.288;2023-03-14T03:05:06;10.50;;;7.07;;
76714;SDS011;65644;44.990;20.288;2023-03-14T03:07:32;10.27;;;7.22;;
76714;SDS011;65644;44.990;20.288;2023-03-14T03:09:58;11.20;;;6.85;;
76714;SDS011;65644;44.990;20.288;2023-03-14T03:12:24;9.20;;;7.10;;
76714;SDS011;65644;44.990;20.288;2023-03-14T03:14:50;10.73;;;6.63;;
76714;SDS011;65644;44.990;20.288;2023-03-14T03:17:16;10.00;;;6.32;;
76714;SDS011;65644;44.990;20.288;2023-03-14T03:19:42;10.50;;;6.30;;
76714;SDS011;65644;44.990;20.288;2023-03-14T03:22:08;9.60;;;6.10;;
76714;SDS011;65644;44.990;20.288;2023-03-14T03:24:34;8.02;;;6.32;;
76714;SDS011;65644;44.990;20.288;2023-03-14T03:27:00;8.20;;;6.22;;
76714;SDS011;65644;44.990;20.288;2023-03-14T03:29:26;8.10;;;5.95;;
76714;SDS011;65644;44.990;20.288;2023-03-14T03:31:52;7.65;;;5.97;;
76714;SDS011;65644;44.990;20.288;2023-03-14T03:34:18;8.65;;;5.70;;
76714;SDS011;65644;44.990;20.288;2023-03-14T03:36:44;8.02;;;6.13;;
76714;SDS011;65644;44.990;20.288;2023-03-14T03:39:10;9.25;;;6.43;;
76714;SDS011;65644;44.990;20.288;2023-03-14T03:41:36;9.00;;;6.60;;
76714;SDS011;65644;44.990;20.288;2023-03-14T03:44:02;9.85;;;6.75;;
76714;SDS011;65644;44.990;20.288;2023-03-14T03:46:28;9.48;;;6.65;;
76714;SDS011;65644;44.990;20.288;2023-03-14T03:48:55;9.68;;;6.05;;
76714;SDS011;65644;44.990;20.288;2023-03-14T03:51:21;9.60;;;6.53;;
76714;SDS011;65644;44.990;20.288;2023-03-14T03:53:47;10.60;;;6.43;;
76714;SDS011;65644;44.990;20.288;2023-03-14T03:56:13;10.00;;;6.50;;
76714;SDS011;65644;44.990;20.288;2023-03-14T03:58:39;9.10;;;5.82;;
76714;SDS011;65644;44.990;20.288;2023-03-14T04:01:07;7.88;;;6.40;;
76714;SDS011;65644;44.990;20.288;2023-03-14T04:03:33;9.88;;;6.28;;
76714;SDS011;65644;44.990;20.288;2023-03-14T04:05:59;8.30;;;6.00;;
76714;SDS011;65644;44.990;20.288;2023-03-14T04:08:26;8.25;;;5.95;;
76714;SDS011;65644;44.990;20.288;2023-03-14T04:10:58;7.03;;;5.57;;
76714;SDS011;65644;44.990;20.288;2023-03-14T04:13:25;8.55;;;6.38;;
76714;SDS011;65644;44.990;20.288;2023-03-14T04:15:51;8.75;;;6.32;;
76714;SDS011;65644;44.990;20.288;2023-03-14T04:18:17;9.65;;;6.10;;
76714;SDS011;65644;44.990;20.288;2023-03-14T04:20:44;8.05;;;5.78;;
76714;SDS011;65644;44.990;20.288;2023-03-14T04:23:10;10.75;;;6.75;;
76714;SDS011;65644;44.990;20.288;2023-03-14T04:25:36;9.32;;;6.60;;
76714;SDS011;65644;44.990;20.288;2023-03-14T04:28:02;10.95;;;6.75;;
76714;SDS011;65644;44.990;20.288;2023-03-14T04:30:29;8.23;;;6.10;;
76714;SDS011;65644;44.990;20.288;2023-03-14T04:32:55;10.18;;;6.32;;
76714;SDS011;65644;44.990;20.288;2023-03-14T04:35:21;8.18;;;6.30;;
76714;SDS011;65644;44.990;20.288;2023-03-14T04:37:47;9.80;;;6.43;;
76714;SDS011;65644;44.990;20.288;2023-03-14T04:40:14;9.30;;;6.13;;
76714;SDS011;65644;44.990;20.288;2023-03-14T04:42:40;9.55;;;6.05;;
76714;SDS011;65644;44.990;20.288;2023-03-14T04:45:07;9.95;;;6.47;;
76714;SDS011;65644;44.990;20.288;2023-03-14T04:47:33;7.50;;;5.70;;
76714;SDS011;65644;44.990;20.288;2023-03-14T04:50:00;10.15;;;6.68;;
76714;SDS011;65644;44.990;20.288;2023-03-14T04:52:26;8.32;;;5.88;;
76714;SDS011;65644;44.990;20.288;2023-03-14T04:54:52;8.45;;;6.15;;
76714;SDS011;65644;44.990;20.288;2023-03-14T04:57:18;7.97;;;6.20;;
76714;SDS011;65644;44.990;20.288;2023-03-14T04:59:44;8.85;;;5.68;;
76714;SDS011;65644;44.990;20.288;2023-03-14T05:02:10;7.75;;;5.63;;
76714;SDS011;65644;44.990;20.288;2023-03-14T05:04:36;8.80;;;5.53;;
76714;SDS011;65644;44.990;20.288;2023-03-14T05:07:02;6.88;;;5.40;;
76714;SDS011;65644;44.990;20.288;2023-03-14T05:09:28;8.25;;;5.88;;
76714;SDS011;65644;44.990;20.288;2023-03-14T05:11:54;9.32;;;6.20;;
76714;SDS011;65644;44.990;20.288;2023-03-14T05:14:20;8.50;;;5.95;;
76714;SDS011;65644;44.990;20.288;2023-03-14T05:16:46;9.15;;;5.70;;
76714;SDS011;65644;44.990;20.288;2023-03-14T05:19:12;10.73;;;5.95;;
76714;SDS011;65644;44.990;20.288;2023-03-14T05:21:39;10.05;;;6.47;;
76714;SDS011;65644;44.990;20.288;2023-03-14T05:24:05;10.50;;;6.15;;
76714;SDS011;65644;44.990;20.288;2023-03-14T05:26:31;9.73;;;6.28;;
76714;SDS011;65644;44.990;20.288;2023-03-14T05:28:57;8.90;;;6.00;;
76714;SDS011;65644;44.990;20.288;2023-03-14T05:31:23;11.13;;;6.20;;
76714;SDS011;65644;44.990;20.288;2023-03-14T05:33:49;9.88;;;6.57;;
76714;SDS011;65644;44.990;20.288;2023-03-14T05:36:15;8.13;;;6.03;;
76714;SDS011;65644;44.990;20.288;2023-03-14T05:38:41;9.07;;;6.30;;
76714;SDS011;65644;44.990;20.288;2023-03-14T05:41:07;9.15;;;5.97;;
76714;SDS011;65644;44.990;20.288;2023-03-14T05:43:33;15.63;;;6.40;;
76714;SDS011;65644;44.990;20.288;2023-03-14T05:45:59;10.10;;;6.40;;
76714;SDS011;65644;44.990;20.288;2023-03-14T05:48:25;10.48;;;6.20;;
76714;SDS011;65644;44.990;20.288;2023-03-14T05:50:55;11.85;;;6.32;;
76714;SDS011;65644;44.990;20.288;2023-03-14T05:53:21;9.00;;;6.05;;
76714;SDS011;65644;44.990;20.288;2023-03-14T05:55:50;13.98;;;7.57;;
76714;SDS011;65644;44.990;20.288;2023-03-14T05:58:16;10.52;;;6.03;;
76714;SDS011;65644;44.990;20.288;2023-03-14T06:00:42;12.70;;;6.78;;
76714;SDS011;65644;44.990;20.288;2023-03-14T06:03:08;9.63;;;5.38;;
76714;SDS011;65644;44.990;20.288;2023-03-14T06:05:34;10.88;;;6.53;;
76714;SDS011;65644;44.990;20.288;2023-03-14T06:08:00;11.63;;;5.88;;
76714;SDS011;65644;44.990;20.288;2023-03-14T06:10:26;10.60;;;5.90;;
76714;SDS011;65644;44.990;20.288;2023-03-14T06:12:52;11.27;;;5.57;;
76714;SDS011;65644;44.990;20.288;2023-03-14T06:15:18;8.68;;;5.75;;
76714;SDS011;65644;44.990;20.288;2023-03-14T06:17:44;11.05;;;6.32;;
76714;SDS011;65644;44.990;20.288;2023-03-14T06:20:11;11.10;;;6.55;;
76714;SDS011;65644;44.990;20.288;2023-03-14T06:22:37;11.15;;;7.40;;
76714;SDS011;65644;44.990;20.288;2023-03-14T06:25:04;13.85;;;8.70;;
76714;SDS011;65644;44.990;20.288;2023-03-14T06:27:30;17.73;;;10.10;;
76714;SDS011;65644;44.990;20.288;2023-03-14T06:29:56;15.23;;;9.65;;
76714;SDS011;65644;44.990;20.288;2023-03-14T06:32:22;19.98;;;10.48;;
76714;SDS011;65644;44.990;20.288;2023-03-14T06:34:49;35.35;;;16.42;;
76714;SDS011;65644;44.990;20.288;2023-03-14T06:37:15;38.70;;;16.52;;
76714;SDS011;65644;44.990;20.288;2023-03-14T06:39:41;31.38;;;14.13;;
76714;SDS011;65644;44.990;20.288;2023-03-14T06:42:09;71.50;;;26.40;;
76714;SDS011;65644;44.990;20.288;2023-03-14T06:44:35;129.90;;;45.53;;
76714;SDS011;65644;44.990;20.288;2023-03-14T06:47:01;67.00;;;26.48;;
76714;SDS011;65644;44.990;20.288;2023-03-14T06:49:27;36.97;;;18.13;;
76714;SDS011;65644;44.990;20.288;2023-03-14T06:51:53;24.42;;;14.82;;
76714;SDS011;65644;44.990;20.288;2023-03-14T06:54:19;25.27;;;13.75;;
76714;SDS011;65644;44.990;20.288;2023-03-14T06:56:45;21.70;;;12.55;;
76714;SDS011;65644;44.990;20.288;2023-03-14T06:59:11;16.95;;;11.57;;
76714;SDS011;65644;44.990;20.288;2023-03-14T07:01:37;20.58;;;13.15;;
76714;SDS011;65644;44.990;20.288;2023-03-14T07:04:05;24.40;;;13.35;;
76714;SDS011;65644;44.990;20.288;2023-03-14T07:06:31;25.30;;;16.23;;
76714;SDS011;65644;44.990;20.288;2023-03-14T07:08:57;31.30;;;19.33;;
76714;SDS011;65644;44.990;20.288;2023-03-14T07:11:23;15.48;;;9.13;;
76714;SDS011;65644;44.990;20.288;2023-03-14T07:13:49;19.52;;;12.25;;
76714;SDS011;65644;44.990;20.288;2023-03-14T07:16:15;9.85;;;6.82;;
76714;SDS011;65644;44.990;20.288;2023-03-14T07:18:41;12.32;;;7.95;;
76714;SDS011;65644;44.990;20.288;2023-03-14T07:21:08;20.10;;;13.88;;
76714;SDS011;65644;44.990;20.288;2023-03-14T07:23:34;12.25;;;8.82;;
76714;SDS011;65644;44.990;20.288;2023-03-14T07:26:00;17.42;;;11.88;;
76714;SDS011;65644;44.990;20.288;2023-03-14T07:28:26;12.85;;;7.35;;
76714;SDS011;65644;44.990;20.288;2023-03-14T07:30:53;9.15;;;6.32;;
76714;SDS011;65644;44.990;20.288;2023-03-14T07:33:19;19.90;;;14.40;;
76714;SDS011;65644;44.990;20.288;2023-03-14T07:35:48;9.05;;;6.43;;
76714;SDS011;65644;44.990;20.288;2023-03-14T07:38:15;8.60;;;5.43;;
76714;SDS011;65644;44.990;20.288;2023-03-14T07:40:41;10.15;;;6.88;;
76714;SDS011;65644;44.990;20.288;2023-03-14T07:43:07;11.20;;;7.20;;
76714;SDS011;65644;44.990;20.288;2023-03-14T07:45:33;8.85;;;5.55;;
76714;SDS011;65644;44.990;20.288;2023-03-14T07:47:59;7.50;;;5.57;;
76714;SDS011;65644;44.990;20.288;2023-03-14T07:50:27;9.57;;;5.75;;
76714;SDS011;65644;44.990;20.288;2023-03-14T07:52:53;9.00;;;5.00;;
76714;SDS011;65644;44.990;20.288;2023-03-14T07:55:20;7.45;;;5.25;;
76714;SDS011;65644;44.990;20.288;2023-03-14T07:57:46;13.13;;;6.05;;
76714;SDS011;65644;44.990;20.288;2023-03-14T08:00:12;10.02;;;6.03;;
76714;SDS011;65644;44.990;20.288;2023-03-14T08:02:39;9.35;;;5.72;;
76714;SDS011;65644;44.990;20.288;2023-03-14T08:05:05;9.95;;;5.90;;
76714;SDS011;65644;44.990;20.288;2023-03-14T08:07:31;9.45;;;6.00;;
76714;SDS011;65644;44.990;20.288;2023-03-14T08:09:57;10.73;;;5.05;;
76714;SDS011;65644;44.990;20.288;2023-03-14T08:12:23;8.40;;;4.88;;
76714;SDS011;65644;44.990;20.288;2023-03-14T08:14:49;10.50;;;5.68;;
76714;SDS011;65644;44.990;20.288;2023-03-14T08:17:15;9.50;;;5.20;;
76714;SDS011;65644;44.990;20.288;2023-03-14T08:19:42;10.05;;;5.90;;
76714;SDS011;65644;44.990;20.288;2023-03-14T08:22:08;8.52;;;5.72;;
76714;SDS011;65644;44.990;20.288;2023-03-14T08:24:34;10.80;;;5.88;;
76714;SDS011;65644;44.990;20.288;2023-03-14T08:27:00;10.50;;;5.45;;
76714;SDS011;65644;44.990;20.288;2023-03-14T08:29:26;11.90;;;6.28;;
76714;SDS011;65644;44.990;20.288;2023-03-14T08:31:52;9.68;;;5.25;;
76714;SDS011;65644;44.990;20.288;2023-03-14T08:34:19;10.25;;;5.43;;
76714;SDS011;65644;44.990;20.288;2023-03-14T08:36:45;7.68;;;5.18;;
76714;SDS011;65644;44.990;20.288;2023-03-14T08:39:11;8.02;;;5.63;;
76714;SDS011;65644;44.990;20.288;2023-03-14T08:41:37;13.38;;;5.93;;
76714;SDS011;65644;44.990;20.288;2023-03-14T08:44:09;9.45;;;5.53;;
76714;SDS011;65644;44.990;20.288;2023-03-14T08:46:36;10.10;;;5.35;;
76714;SDS011;65644;44.990;20.288;2023-03-14T08:49:02;11.23;;;6.75;;
76714;SDS011;65644;44.990;20.288;2023-03-14T08:51:28;9.93;;;6.18;;
76714;SDS011;65644;44.990;20.288;2023-03-14T08:53:55;13.13;;;6.28;;
76714;SDS011;65644;44.990;20.288;2023-03-14T08:56:21;8.88;;;5.63;;
76714;SDS011;65644;44.990;20.288;2023-03-14T08:58:47;16.45;;;7.60;;
76714;SDS011;65644;44.990;20.288;2023-03-14T09:01:14;13.27;;;6.28;;
76714;SDS011;65644;44.990;20.288;2023-03-14T09:03:40;7.53;;;5.10;;
76714;SDS011;65644;44.990;20.288;2023-03-14T09:06:08;13.15;;;6.50;;
76714;SDS011;65644;44.990;20.288;2023-03-14T09:08:34;12.38;;;6.40;;
76714;SDS011;65644;44.990;20.288;2023-03-14T09:11:00;9.95;;;6.00;;
76714;SDS011;65644;44.990;20.288;2023-03-14T09:13:26;15.55;;;6.13;;
76714;SDS011;65644;44.990;20.288;2023-03-14T09:15:53;13.95;;;7.10;;
76714;SDS011;65644;44.990;20.288;2023-03-14T09:18:19;9.55;;;4.90;;
76714;SDS011;65644;44.990;20.288;2023-03-14T09:20:45;10.65;;;5.28;;
76714;SDS011;65644;44.990;20.288;2023-03-14T09:23:11;11.48;;;6.70;;
76714;SDS011;65644;44.990;20.288;2023-03-14T09:25:37;9.18;;;4.85;;
76714;SDS011;65644;44.990;20.288;2023-03-14T09:28:04;11.52;;;5.60;;
76714;SDS011;65644;44.990;20.288;2023-03-14T09:30:30;11.90;;;6.47;;
76714;SDS011;65644;44.990;20.288;2023-03-14T09:32:56;16.73;;;8.80;;
76714;SDS011;65644;44.990;20.288;2023-03-14T09:35:23;18.52;;;8.70;;
76714;SDS011;65644;44.990;20.288;2023-03-14T09:37:49;7.85;;;4.38;;
76714;SDS011;65644;44.990;20.288;2023-03-14T09:40:15;10.40;;;5.22;;
76714;SDS011;65644;44.990;20.288;2023-03-14T09:42:42;7.32;;;4.60;;
76714;SDS011;65644;44.990;20.288;2023-03-14T09:45:23;10.05;;;4.55;;
76714;SDS011;65644;44.990;20.288;2023-03-14T09:47:50;8.65;;;5.28;;
76714;SDS011;65644;44.990;20.288;2023-03-14T09:50:16;6.63;;;4.28;;
76714;SDS011;65644;44.990;20.288;2023-03-14T09:52:44;6.55;;;4.95;;
76714;SDS011;65644;44.990;20.288;2023-03-14T09:55:12;9.07;;;5.18;;
76714;SDS011;65644;44.990;20.288;2023-03-14T09:57:39;7.63;;;4.85;;
76714;SDS011;65644;44.990;20.288;2023-03-14T10:00:20;9.77;;;5.75;;
76714;SDS011;65644;44.990;20.288;2023-03-14T10:03:15;7.95;;;4.82;;
76714;SDS011;65644;44.990;20.288;2023-03-14T10:05:33;7.88;;;4.07;;
76714;SDS011;65644;44.990;20.288;2023-03-14T10:07:59;7.65;;;4.43;;
76714;SDS011;65644;44.990;20.288;2023-03-14T10:10:25;6.40;;;4.32;;
76714;SDS011;65644;44.990;20.288;2023-03-14T10:12:55;7.68;;;4.57;;
76714;SDS011;65644;44.990;20.288;2023-03-14T10:15:31;8.85;;;4.78;;
76714;SDS011;65644;44.990;20.288;2023-03-14T10:17:59;11.07;;;6.20;;
76714;SDS011;65644;44.990;20.288;2023-03-14T10:22:52;8.60;;;4.63;;
76714;SDS011;65644;44.990;20.288;2023-03-14T10:25:26;9.50;;;4.70;;
76714;SDS011;65644;44.990;20.288;2023-03-14T10:27:53;7.68;;;4.43;;
76714;SDS011;65644;44.990;20.288;2023-03-14T10:33:18;6.57;;;4.20;;
76714;SDS011;65644;44.990;20.288;2023-03-14T10:35:46;8.05;;;3.85;;
76714;SDS011;65644;44.990;20.288;2023-03-14T10:38:16;7.55;;;3.58;;
76714;SDS011;65644;44.990;20.288;2023-03-14T10:40:49;7.25;;;3.63;;
76714;SDS011;65644;44.990;20.288;2023-03-14T10:43:18;6.88;;;3.63;;
76714;SDS011;65644;44.990;20.288;2023-03-14T10:45:51;6.22;;;3.83;;
76714;SDS011;65644;44.990;20.288;2023-03-14T10:48:21;7.88;;;3.67;;
76714;SDS011;65644;44.990;20.288;2023-03-14T10:53:23;6.68;;;3.40;;
76714;SDS011;65644;44.990;20.288;2023-03-14T10:55:49;5.50;;;2.95;;
76714;SDS011;65644;44.990;20.288;2023-03-14T10:58:20;4.72;;;3.22;;
76714;SDS011;65644;44.990;20.288;2023-03-14T11:00:58;6.53;;;2.80;;
76714;SDS011;65644;44.990;20.288;2023-03-14T11:03:26;8.23;;;3.15;;
76714;SDS011;65644;44.990;20.288;2023-03-14T11:05:57;4.57;;;2.80;;
76714;SDS011;65644;44.990;20.288;2023-03-14T11:08:25;5.63;;;2.72;;
76714;SDS011;65644;44.990;20.288;2023-03-14T11:10:53;4.13;;;2.72;;
76714;SDS011;65644;44.990;20.288;2023-03-14T11:13:29;3.17;;;2.53;;
76714;SDS011;65644;44.990;20.288;2023-03-14T11:18:46;5.78;;;3.00;;
76714;SDS011;65644;44.990;20.288;2023-03-14T11:21:20;6.75;;;3.22;;
76714;SDS011;65644;44.990;20.288;2023-03-14T11:26:47;7.38;;;3.97;;
76714;SDS011;65644;44.990;20.288;2023-03-14T11:31:43;4.72;;;2.60;;
76714;SDS011;65644;44.990;20.288;2023-03-14T11:34:17;5.03;;;2.50;;
76714;SDS011;65644;44.990;20.288;2023-03-14T11:39:17;4.30;;;2.83;;
76714;SDS011;65644;44.990;20.288;2023-03-14T11:41:51;5.32;;;3.30;;
76714;SDS011;65644;44.990;20.288;2023-03-14T11:44:24;7.60;;;3.28;;
76714;SDS011;65644;44.990;20.288;2023-03-14T11:46:53;4.93;;;2.58;;
76714;SDS011;65644;44.990;20.288;2023-03-14T11:52:09;4.47;;;2.53;;
76714;SDS011;65644;44.990;20.288;2023-03-14T11:57:05;5.57;;;2.90;;
76714;SDS011;65644;44.990;20.288;2023-03-14T12:10:27;3.90;;;2.65;;
76714;SDS011;65644;44.990;20.288;2023-03-14T12:12:53;10.70;;;5.63;;
76714;SDS011;65644;44.990;20.288;2023-03-14T12:15:20;12.25;;;5.65;;
76714;SDS011;65644;44.990;20.288;2023-03-14T12:17:46;13.38;;;5.35;;
76714;SDS011;65644;44.990;20.288;2023-03-14T12:20:19;12.88;;;5.95;;
76714;SDS011;65644;44.990;20.288;2023-03-14T12:22:49;12.93;;;6.57;;
76714;SDS011;65644;44.990;20.288;2023-03-14T12:25:20;7.13;;;3.50;;
76714;SDS011;65644;44.990;20.288;2023-03-14T12:38:08;11.82;;;6.72;;
76714;SDS011;65644;44.990;20.288;2023-03-14T12:40:37;86.35;;;35.92;;
76714;SDS011;65644;44.990;20.288;2023-03-14T12:43:10;23.52;;;12.80;;
76714;SDS011;65644;44.990;20.288;2023-03-14T13:01:27;4.90;;;2.83;;
76714;SDS011;65644;44.990;20.288;2023-03-14T13:03:57;5.60;;;3.40;;
76714;SDS011;65644;44.990;20.288;2023-03-14T13:06:44;6.18;;;2.75;;
76714;SDS011;65644;44.990;20.288;2023-03-14T13:12:03;5.85;;;3.15;;
76714;SDS011;65644;44.990;20.288;2023-03-14T13:14:32;4.47;;;2.67;;
76714;SDS011;65644;44.990;20.288;2023-03-14T13:16:59;5.53;;;3.00;;
76714;SDS011;65644;44.990;20.288;2023-03-14T13:19:26;9.35;;;3.75;;
76714;SDS011;65644;44.990;20.288;2023-03-14T13:21:56;3.85;;;3.05;;
76714;SDS011;65644;44.990;20.288;2023-03-14T13:24:26;3.40;;;2.83;;
76714;SDS011;65644;44.990;20.288;2023-03-14T13:26:56;6.80;;;3.60;;
76714;SDS011;65644;44.990;20.288;2023-03-14T13:31:53;7.10;;;4.50;;
76714;SDS011;65644;44.990;20.288;2023-03-14T13:34:19;5.18;;;3.50;;
76714;SDS011;65644;44.990;20.288;2023-03-14T13:36:46;8.48;;;3.40;;
76714;SDS011;65644;44.990;20.288;2023-03-14T13:39:16;6.05;;;3.47;;
76714;SDS011;65644;44.990;20.288;2023-03-14T13:41:44;5.85;;;3.08;;
76714;SDS011;65644;44.990;20.288;2023-03-14T13:44:14;9.88;;;3.60;;
76714;SDS011;65644;44.990;20.288;2023-03-14T13:46:41;3.88;;;2.95;;
76714;SDS011;65644;44.990;20.288;2023-03-14T13:49:11;4.65;;;3.72;;
76714;SDS011;65644;44.990;20.288;2023-03-14T13:51:38;6.63;;;3.30;;
76714;SDS011;65644;44.990;20.288;2023-03-14T13:54:12;4.70;;;3.22;;
76714;SDS011;65644;44.990;20.288;2023-03-14T13:56:39;5.65;;;3.50;;
76714;SDS011;65644;44.990;20.288;2023-03-14T13:59:20;4.75;;;3.33;;
76714;SDS011;65644;44.990;20.288;2023-03-14T14:01:46;7.32;;;4.38;;
76714;SDS011;65644;44.990;20.288;2023-03-14T14:04:16;7.90;;;3.53;;
76714;SDS011;65644;44.990;20.288;2023-03-14T14:06:53;6.13;;;3.67;;
76714;SDS011;65644;44.990;20.288;2023-03-14T14:09:20;10.23;;;4.47;;
76714;SDS011;65644;44.990;20.288;2023-03-14T14:11:49;4.97;;;3.30;;
76714;SDS011;65644;44.990;20.288;2023-03-14T14:14:36;4.22;;;2.58;;
76714;SDS011;65644;44.990;20.288;2023-03-14T14:17:05;4.60;;;2.97;;
76714;SDS011;65644;44.990;20.288;2023-03-14T14:19:32;5.57;;;2.97;;
76714;SDS011;65644;44.990;20.288;2023-03-14T14:21:59;6.03;;;3.50;;
76714;SDS011;65644;44.990;20.288;2023-03-14T14:24:28;5.30;;;3.55;;
76714;SDS011;65644;44.990;20.288;2023-03-14T14:27:16;5.40;;;3.45;;
76714;SDS011;65644;44.990;20.288;2023-03-14T14:29:41;13.23;;;3.30;;
76714;SDS011;65644;44.990;20.288;2023-03-14T14:34:40;5.53;;;3.40;;
76714;SDS011;65644;44.990;20.288;2023-03-14T14:37:21;5.43;;;3.58;;
76714;SDS011;65644;44.990;20.288;2023-03-14T14:39:47;7.80;;;3.90;;
76714;SDS011;65644;44.990;20.288;2023-03-14T14:42:14;5.85;;;3.33;;
76714;SDS011;65644;44.990;20.288;2023-03-14T14:44:41;5.68;;;3.65;;
76714;SDS011;65644;44.990;20.288;2023-03-14T14:47:12;6.10;;;3.17;;
76714;SDS011;65644;44.990;20.288;2023-03-14T14:49:39;6.15;;;3.20;;
76714;SDS011;65644;44.990;20.288;2023-03-14T14:52:15;6.40;;;3.50;;
76714;SDS011;65644;44.990;20.288;2023-03-14T14:57:19;8.63;;;2.87;;
76714;SDS011;65644;44.990;20.288;2023-03-14T14:59:47;6.07;;;3.33;;
76714;SDS011;65644;44.990;20.288;2023-03-14T15:02:30;5.15;;;3.38;;
76714;SDS011;65644;44.990;20.288;2023-03-14T15:04:58;7.28;;;3.50;;
76714;SDS011;65644;44.990;20.288;2023-03-14T15:07:24;4.78;;;3.53;;
76714;SDS011;65644;44.990;20.288;2023-03-14T15:09:50;7.13;;;4.00;;
76714;SDS011;65644;44.990;20.288;2023-03-14T15:12:16;5.88;;;3.30;;
76714;SDS011;65644;44.990;20.288;2023-03-14T15:14:42;6.43;;;3.88;;
76714;SDS011;65644;44.990;20.288;2023-03-14T15:17:11;5.88;;;3.35;;
76714;SDS011;65644;44.990;20.288;2023-03-14T15:19:37;6.30;;;3.45;;
76714;SDS011;65644;44.990;20.288;2023-03-14T15:22:04;8.73;;;3.92;;
76714;SDS011;65644;44.990;20.288;2023-03-14T15:24:31;7.65;;;4.18;;
76714;SDS011;65644;44.990;20.288;2023-03-14T15:26:57;6.22;;;3.45;;
76714;SDS011;65644;44.990;20.288;2023-03-14T15:29:23;6.13;;;4.25;;
76714;SDS011;65644;44.990;20.288;2023-03-14T15:31:49;7.40;;;4.43;;
76714;SDS011;65644;44.990;20.288;2023-03-14T15:34:15;8.05;;;4.70;;
76714;SDS011;65644;44.990;20.288;2023-03-14T15:36:41;7.65;;;3.97;;
76714;SDS011;65644;44.990;20.288;2023-03-14T15:39:09;11.68;;;6.78;;
76714;SDS011;65644;44.990;20.288;2023-03-14T15:41:36;13.32;;;6.65;;
76714;SDS011;65644;44.990;20.288;2023-03-14T15:44:02;13.10;;;7.18;;
76714;SDS011;65644;44.990;20.288;2023-03-14T15:46:28;11.80;;;7.10;;
76714;SDS011;65644;44.990;20.288;2023-03-14T15:48:54;9.43;;;5.28;;